createdAt,value
2022-10-19T00:00:49.089Z,13.38
2022-10-19T00:03:20.696Z,13.32
2022-10-19T00:05:50.351Z,13.30
2022-10-19T00:08:17.583Z,13.26
2022-10-19T00:10:44.698Z,13.21
2022-10-19T00:13:11.834Z,13.27
2022-10-19T00:15:40.443Z,13.23
2022-10-19T00:18:08.557Z,13.21
2022-10-19T00:20:36.941Z,13.14
2022-10-19T00:23:04.471Z,13.11
2022-10-19T00:25:31.955Z,13.13
2022-10-19T00:27:59.074Z,13.12
2022-10-19T00:30:26.176Z,13.06
2022-10-19T00:32:53.296Z,13.00
2022-10-19T00:35:20.403Z,12.91
2022-10-19T00:37:47.517Z,12.89
2022-10-19T00:40:14.623Z,12.92
2022-10-19T00:42:41.798Z,12.92
2022-10-19T00:45:15.667Z,12.96
2022-10-19T00:47:44.868Z,12.99
2022-10-19T00:50:14.302Z,12.95
2022-10-19T00:52:41.859Z,12.89
2022-10-19T00:55:10.810Z,12.88
2022-10-19T00:57:38.312Z,12.82
2022-10-19T01:00:07.260Z,12.78
2022-10-19T01:02:35.342Z,12.77
2022-10-19T01:05:03.935Z,12.79
2022-10-19T01:07:31.728Z,12.80
2022-10-19T01:10:00.195Z,12.81
2022-10-19T01:13:18.123Z,12.83
2022-10-19T01:16:23.252Z,12.82
2022-10-19T01:18:58.003Z,12.78
2022-10-19T01:21:29.017Z,12.81
2022-10-19T01:24:18.010Z,12.81
2022-10-19T01:27:05.376Z,12.78
2022-10-19T01:30:03.100Z,12.74
2022-10-19T01:32:57.076Z,12.67
2022-10-19T01:35:43.590Z,12.64
2022-10-19T01:38:17.639Z,12.55
2022-10-19T01:40:55.254Z,12.49
2022-10-19T01:43:31.207Z,12.37
2022-10-19T01:46:09.253Z,12.37
2022-10-19T01:48:40.970Z,12.35
2022-10-19T01:51:17.326Z,12.39
2022-10-19T01:53:49.480Z,12.43
2022-10-19T01:56:19.926Z,12.44
2022-10-19T01:58:48.775Z,12.51
2022-10-19T02:01:19.860Z,12.58
2022-10-19T02:03:50.131Z,12.61
2022-10-19T02:06:18.282Z,12.64
2022-10-19T02:08:48.815Z,12.69
2022-10-19T02:11:17.880Z,12.71
2022-10-19T02:13:48.943Z,12.73
2022-10-19T02:16:25.086Z,12.79
2022-10-19T02:18:54.939Z,12.80
2022-10-19T02:21:22.549Z,12.81
2022-10-19T02:23:51.906Z,12.85
2022-10-19T02:26:22.140Z,12.92
2022-10-19T02:28:50.427Z,12.95
2022-10-19T02:31:17.670Z,12.97
2022-10-19T02:33:45.027Z,12.94
2022-10-19T02:36:12.539Z,12.94
2022-10-19T02:38:40.784Z,12.95
2022-10-19T02:41:23.037Z,12.93
2022-10-19T02:43:56.942Z,12.91
2022-10-19T02:46:31.921Z,12.91
2022-10-19T02:49:01.054Z,12.83
2022-10-19T02:51:36.932Z,12.81
2022-10-19T02:54:06.090Z,12.77
2022-10-19T02:56:35.189Z,12.69
2022-10-19T02:59:03.344Z,12.60
2022-10-19T03:01:30.526Z,12.54
2022-10-19T03:03:57.647Z,12.53
2022-10-19T03:06:24.853Z,12.45
2022-10-19T03:08:52.026Z,12.43
2022-10-19T03:11:19.221Z,12.36
2022-10-19T03:16:18.458Z,12.30
2022-10-19T03:18:48.930Z,12.28
2022-10-19T03:21:16.382Z,12.27
2022-10-19T03:23:43.540Z,12.24
2022-10-19T03:26:15.022Z,12.20
2022-10-19T03:28:42.526Z,12.14
2022-10-19T03:31:09.786Z,12.13
2022-10-19T03:33:36.899Z,12.15
2022-10-19T03:36:24.357Z,12.15
2022-10-19T03:38:53.538Z,12.13
2022-10-19T03:41:22.082Z,12.12
2022-10-19T03:43:49.436Z,12.08
2022-10-19T03:46:16.883Z,12.03
2022-10-19T03:48:44.114Z,12.00
2022-10-19T03:51:16.912Z,11.99
2022-10-19T03:53:45.314Z,11.96
2022-10-19T03:56:15.031Z,11.97
2022-10-19T03:58:43.987Z,11.96
2022-10-19T04:01:14.491Z,11.94
2022-10-19T04:03:42.104Z,11.94
2022-10-19T04:06:14.817Z,11.92
2022-10-19T04:08:44.590Z,11.86
2022-10-19T04:11:14.867Z,11.87
2022-10-19T04:13:41.977Z,11.92
2022-10-19T04:16:13.278Z,11.89
2022-10-19T04:18:40.479Z,11.90
2022-10-19T04:21:07.658Z,11.90
2022-10-19T04:23:36.106Z,11.89
2022-10-19T04:26:07.962Z,11.89
2022-10-19T04:28:35.180Z,11.90
2022-10-19T04:31:06.208Z,11.93
2022-10-19T04:33:34.414Z,11.88
2022-10-19T04:36:07.309Z,11.86
2022-10-19T04:38:35.063Z,11.84
2022-10-19T04:41:08.259Z,11.82
2022-10-19T04:43:36.070Z,11.80
2022-10-19T04:46:09.212Z,11.80
2022-10-19T04:48:37.823Z,11.79
2022-10-19T04:51:05.339Z,11.80
2022-10-19T04:53:33.057Z,11.92
2022-10-19T04:56:00.562Z,11.90
2022-10-19T04:58:27.642Z,12.82
2022-10-19T05:00:54.809Z,13.92
2022-10-19T05:03:21.911Z,14.37
2022-10-19T05:05:49.754Z,14.85
2022-10-19T05:08:17.203Z,15.01
2022-10-19T05:10:47.659Z,15.11
2022-10-19T05:13:14.983Z,15.27
2022-10-19T05:15:42.142Z,15.39
2022-10-19T05:18:09.232Z,15.45
2022-10-19T05:20:36.347Z,15.55
2022-10-19T05:23:06.426Z,15.61
2022-10-19T05:25:34.595Z,15.56
2022-10-19T05:28:01.683Z,15.54
2022-10-19T05:30:28.882Z,15.55
2022-10-19T05:32:56.038Z,15.50
2022-10-19T05:35:23.165Z,15.56
2022-10-19T05:37:55.154Z,15.22
2022-10-19T05:40:22.271Z,15.83
2022-10-19T05:42:49.327Z,16.40
2022-10-19T05:45:16.421Z,15.39
2022-10-19T05:47:43.502Z,14.27
2022-10-19T05:50:10.577Z,13.56
2022-10-19T05:52:37.666Z,13.12
2022-10-19T05:55:05.372Z,12.71
2022-10-19T05:57:33.192Z,12.57
2022-10-19T06:00:00.603Z,12.46
2022-10-19T06:02:27.699Z,12.33
2022-10-19T06:04:54.820Z,12.32
2022-10-19T06:07:21.885Z,12.26
2022-10-19T06:09:48.979Z,12.26
2022-10-19T06:12:20.449Z,12.27
2022-10-19T06:14:52.816Z,12.33
2022-10-19T06:17:19.908Z,12.39
2022-10-19T06:19:47.018Z,12.38
2022-10-19T06:22:14.151Z,12.43
2022-10-19T06:24:41.237Z,12.37
2022-10-19T06:27:08.388Z,12.66
2022-10-19T06:29:35.680Z,12.74
2022-10-19T06:32:03.666Z,12.81
2022-10-19T06:34:30.974Z,12.79
2022-10-19T06:36:58.211Z,12.87
2022-10-19T06:39:25.356Z,12.94
2022-10-19T06:41:52.459Z,12.99
2022-10-19T06:44:19.747Z,13.13
2022-10-19T06:46:46.952Z,13.14
2022-10-19T06:49:14.709Z,13.25
2022-10-19T06:51:41.946Z,13.30
2022-10-19T06:54:09.263Z,13.40
2022-10-19T06:56:36.470Z,13.53
2022-10-19T06:59:03.682Z,13.69
2022-10-19T07:01:31.085Z,13.77
2022-10-19T07:03:58.214Z,13.82
2022-10-19T07:06:26.914Z,13.91
2022-10-19T07:08:54.046Z,13.97
2022-10-19T07:11:22.424Z,14.05
2022-10-19T07:13:50.394Z,14.18
2022-10-19T07:16:20.968Z,14.29
2022-10-19T07:18:50.783Z,14.44
2022-10-19T07:21:18.951Z,14.53
2022-10-19T07:23:47.415Z,14.64
2022-10-19T07:26:27.417Z,14.74
2022-10-19T07:28:57.838Z,14.86
2022-10-19T07:31:26.679Z,14.95
2022-10-19T07:33:56.135Z,15.13
2022-10-19T07:36:24.638Z,15.25
2022-10-19T07:38:52.289Z,15.27
2022-10-19T07:41:21.807Z,15.49
2022-10-19T07:43:51.136Z,15.65
2022-10-19T07:46:25.352Z,15.82
2022-10-19T07:48:53.383Z,15.96
2022-10-19T07:51:21.670Z,16.15
2022-10-19T07:53:49.129Z,16.26
2022-10-19T07:56:21.497Z,16.39
2022-10-19T07:58:50.701Z,16.54
2022-10-19T08:01:23.899Z,16.63
2022-10-19T08:06:42.550Z,16.89
2022-10-19T08:09:11.464Z,16.94
2022-10-19T08:11:42.791Z,17.06
2022-10-19T08:14:09.912Z,17.16
2022-10-19T08:16:44.155Z,17.31
2022-10-19T08:19:13.492Z,17.47
2022-10-19T08:21:43.607Z,17.58
2022-10-19T08:24:13.290Z,17.73
2022-10-19T08:26:41.054Z,17.71
2022-10-19T08:29:19.610Z,17.90
2022-10-19T08:31:48.193Z,18.01
2022-10-19T08:34:16.330Z,18.16
2022-10-19T08:36:43.543Z,18.26
2022-10-19T08:39:12.650Z,18.45
2022-10-19T08:41:39.739Z,18.55
2022-10-19T08:44:15.848Z,18.53
2022-10-19T08:47:23.310Z,18.59
2022-10-19T08:49:51.401Z,18.70
2022-10-19T08:52:29.586Z,18.80
2022-10-19T08:55:08.985Z,18.98
2022-10-19T08:58:13.510Z,19.05
2022-10-19T09:00:50.142Z,19.15
2022-10-19T09:03:37.827Z,19.23
2022-10-19T09:06:34.198Z,19.36
2022-10-19T09:09:01.439Z,19.65
2022-10-19T09:11:38.508Z,19.49
2022-10-19T09:14:14.900Z,19.62
2022-10-19T09:16:42.720Z,19.74
2022-10-19T09:19:25.597Z,19.79
2022-10-19T09:21:57.363Z,19.89
2022-10-19T09:24:29.765Z,19.93
2022-10-19T09:27:00.801Z,20.02
2022-10-19T09:29:40.086Z,20.00
2022-10-19T09:32:33.538Z,20.34
2022-10-19T09:35:22.282Z,20.22
2022-10-19T09:37:51.198Z,20.56
2022-10-19T09:40:25.284Z,20.66
2022-10-19T09:42:57.346Z,20.58
2022-10-19T09:45:47.774Z,20.95
2022-10-19T09:48:23.811Z,21.03
2022-10-19T09:51:00.128Z,21.14
2022-10-19T09:53:29.218Z,21.12
2022-10-19T09:56:02.876Z,21.09
2022-10-19T09:58:32.946Z,21.09
2022-10-19T10:01:02.477Z,21.17
2022-10-19T10:03:43.566Z,21.34
2022-10-19T10:06:15.296Z,21.60
2022-10-19T10:08:48.518Z,21.63
2022-10-19T10:11:22.706Z,21.64
2022-10-19T10:13:52.786Z,21.46
2022-10-19T10:16:24.850Z,21.47
2022-10-19T10:18:56.913Z,21.68
2022-10-19T10:21:27.038Z,21.76
2022-10-19T10:24:02.976Z,22.28
2022-10-19T10:26:30.149Z,22.34
2022-10-19T10:29:00.662Z,22.33
2022-10-19T10:31:30.157Z,22.37
2022-10-19T10:34:10.963Z,22.27
2022-10-19T10:36:53.635Z,22.54
2022-10-19T10:39:20.852Z,22.59
2022-10-19T10:41:49.021Z,22.68
2022-10-19T10:44:26.487Z,22.47
2022-10-19T10:47:00.115Z,22.37
2022-10-19T10:49:35.551Z,22.57
2022-10-19T10:52:10.746Z,22.68
2022-10-19T10:54:38.811Z,22.81
2022-10-19T10:57:16.647Z,23.06
2022-10-19T10:59:51.881Z,23.21
2022-10-19T11:02:27.797Z,23.37
2022-10-19T11:05:11.742Z,23.19
2022-10-19T11:07:44.157Z,22.78
2022-10-19T11:10:26.666Z,23.08
2022-10-19T11:13:18.313Z,22.91
2022-10-19T11:16:06.699Z,23.19
2022-10-19T11:18:46.063Z,23.56
2022-10-19T11:21:24.063Z,23.54
2022-10-19T11:24:16.526Z,23.42
2022-10-19T11:27:18.407Z,23.62
2022-10-19T11:29:57.625Z,23.46
2022-10-19T11:32:35.112Z,23.57
2022-10-19T11:35:17.432Z,24.28
2022-10-19T11:38:17.398Z,24.00
2022-10-19T11:41:26.403Z,24.29
2022-10-19T11:44:20.753Z,23.87
2022-10-19T11:47:14.058Z,24.08
2022-10-19T11:49:50.255Z,24.22
2022-10-19T11:52:46.278Z,24.25
2022-10-19T11:55:40.809Z,23.89
2022-10-19T11:58:38.102Z,24.03
2022-10-19T12:01:23.722Z,24.35
2022-10-19T12:04:11.010Z,24.17
2022-10-19T12:06:43.826Z,24.23
2022-10-19T12:09:35.425Z,24.67
2022-10-19T12:12:19.522Z,23.64
2022-10-19T12:14:51.607Z,23.62
2022-10-19T12:17:26.399Z,23.71
2022-10-19T12:19:59.501Z,23.82
2022-10-19T12:22:28.317Z,23.96
2022-10-19T12:24:59.669Z,24.39
2022-10-19T12:27:47.672Z,24.76
2022-10-19T12:30:23.563Z,24.47
2022-10-19T12:33:14.606Z,24.93
2022-10-19T12:35:59.639Z,24.84
2022-10-19T12:38:40.892Z,24.31
2022-10-19T12:42:00.947Z,24.46
2022-10-19T12:44:39.791Z,24.37
2022-10-19T12:47:11.852Z,24.04
2022-10-19T12:49:45.786Z,23.98
2022-10-19T12:52:15.275Z,24.37
2022-10-19T12:54:43.970Z,24.41
2022-10-19T12:57:29.959Z,24.45
2022-10-19T13:00:04.241Z,24.58
2022-10-19T13:02:35.597Z,24.77
2022-10-19T13:05:04.358Z,24.81
2022-10-19T13:07:36.056Z,24.84
2022-10-19T13:10:06.894Z,24.73
2022-10-19T13:12:46.286Z,24.76
2022-10-19T13:15:39.384Z,24.94
2022-10-19T13:18:13.971Z,25.07
2022-10-19T13:20:50.268Z,25.18
2022-10-19T13:23:17.649Z,25.15
2022-10-19T13:25:44.814Z,25.19
2022-10-19T13:28:17.790Z,25.41
2022-10-19T13:30:44.878Z,25.37
2022-10-19T13:33:28.435Z,25.53
2022-10-19T13:35:58.325Z,25.48
2022-10-19T13:38:26.327Z,25.30
2022-10-19T13:41:25.559Z,25.48
2022-10-19T13:44:01.723Z,25.34
2022-10-19T13:46:28.780Z,25.42
2022-10-19T13:48:58.701Z,25.50
2022-10-19T13:51:46.634Z,25.49
2022-10-19T13:54:37.882Z,25.52
2022-10-19T13:57:24.002Z,25.35
2022-10-19T14:00:15.756Z,25.30
2022-10-19T14:03:22.429Z,25.42
2022-10-19T14:06:13.256Z,25.42
2022-10-19T14:09:21.493Z,25.48
2022-10-19T14:11:52.652Z,25.43
2022-10-19T14:14:24.253Z,25.67
2022-10-19T14:17:03.065Z,25.79
2022-10-19T14:19:43.710Z,25.75
2022-10-19T14:22:37.231Z,25.96
2022-10-19T14:25:16.120Z,25.97
2022-10-19T14:27:43.571Z,25.58
2022-10-19T14:30:25.458Z,25.78
2022-10-19T14:32:56.836Z,25.62
2022-10-19T14:35:38.273Z,25.32
2022-10-19T14:38:08.481Z,25.16
2022-10-19T14:40:41.068Z,25.23
2022-10-19T14:43:31.582Z,25.03
2022-10-19T14:46:07.558Z,25.00
2022-10-19T14:48:36.540Z,24.79
2022-10-19T14:51:09.941Z,24.60
2022-10-19T14:53:42.501Z,24.44
2022-10-19T14:56:21.183Z,24.26
2022-10-19T14:59:02.660Z,24.07
2022-10-19T15:01:30.058Z,24.02
2022-10-19T15:03:57.352Z,23.90
2022-10-19T15:06:29.983Z,23.83
2022-10-19T15:09:03.830Z,23.67
2022-10-19T15:11:37.071Z,23.54
2022-10-19T15:14:12.007Z,23.55
2022-10-19T15:16:39.115Z,23.50
2022-10-19T15:19:18.318Z,23.34
2022-10-19T15:22:05.544Z,23.26
2022-10-19T15:24:32.714Z,23.14
2022-10-19T15:27:19.216Z,23.01
2022-10-19T15:29:57.019Z,22.90
2022-10-19T15:32:29.566Z,22.87
2022-10-19T15:34:56.742Z,22.88
2022-10-19T15:39:56.906Z,22.67
2022-10-19T15:42:36.694Z,22.55
2022-10-19T15:45:24.986Z,22.40
2022-10-19T15:48:20.930Z,22.24
2022-10-19T15:50:50.335Z,22.07
2022-10-19T15:53:18.990Z,21.94
2022-10-19T15:55:46.334Z,21.82
2022-10-19T15:58:14.263Z,21.74
2022-10-19T16:00:41.891Z,21.59
2022-10-19T16:03:09.209Z,21.49
2022-10-19T16:05:36.638Z,21.41
2022-10-19T16:10:37.279Z,21.20
2022-10-19T16:13:04.510Z,21.04
2022-10-19T16:15:31.659Z,20.88
2022-10-19T16:18:00.005Z,20.75
2022-10-19T16:20:29.185Z,20.62
2022-10-19T16:22:56.944Z,20.50
2022-10-19T16:25:24.411Z,20.37
2022-10-19T16:27:51.579Z,20.29
2022-10-19T16:30:18.865Z,20.22
2022-10-19T16:32:48.531Z,20.14
2022-10-19T16:35:15.806Z,20.02
2022-10-19T16:37:42.993Z,19.92
2022-10-19T16:40:10.454Z,19.84
2022-10-19T16:42:37.910Z,19.75
2022-10-19T16:45:05.561Z,19.65
2022-10-19T16:47:32.687Z,19.59
2022-10-19T16:50:01.510Z,19.56
2022-10-19T16:52:31.386Z,19.49
2022-10-19T16:54:59.719Z,19.39
2022-10-19T16:57:26.918Z,19.29
2022-10-19T16:59:54.397Z,19.21
2022-10-19T17:02:22.210Z,19.11
2022-10-19T17:04:49.347Z,19.04
2022-10-19T17:07:16.742Z,18.97
2022-10-19T17:09:44.034Z,18.92
2022-10-19T17:12:11.697Z,18.90
2022-10-19T17:14:40.834Z,18.85
2022-10-19T17:17:09.513Z,18.84
2022-10-19T17:19:37.334Z,18.84
2022-10-19T17:22:05.410Z,18.84
2022-10-19T17:24:32.754Z,18.84
2022-10-19T17:27:02.814Z,18.81
2022-10-19T17:29:30.049Z,18.77
2022-10-19T17:31:58.062Z,18.68
2022-10-19T17:34:25.372Z,18.61
2022-10-19T17:36:52.472Z,18.54
2022-10-19T17:39:25.733Z,18.50
2022-10-19T17:42:01.204Z,18.44
2022-10-19T17:44:29.954Z,18.36
2022-10-19T17:46:57.129Z,18.30
2022-10-19T17:49:24.306Z,18.22
2022-10-19T17:51:53.183Z,18.17
2022-10-19T17:54:20.598Z,18.14
2022-10-19T17:56:47.754Z,18.13
2022-10-19T17:59:15.016Z,18.16
2022-10-19T18:01:42.159Z,18.13
2022-10-19T18:04:09.346Z,18.09
2022-10-19T18:06:38.199Z,18.09
2022-10-19T18:09:08.130Z,18.01
2022-10-19T18:11:43.734Z,17.88
2022-10-19T18:14:12.487Z,17.80
2022-10-19T18:16:45.449Z,17.78
2022-10-19T18:19:16.911Z,17.79
2022-10-19T18:21:46.035Z,17.82
2022-10-19T18:24:19.181Z,17.73
2022-10-19T18:26:47.997Z,17.64
2022-10-19T18:29:17.815Z,17.61
2022-10-19T18:31:49.054Z,17.61
2022-10-19T18:34:16.283Z,17.60
2022-10-19T18:36:44.254Z,17.56
2022-10-19T18:39:13.312Z,17.52
2022-10-19T18:41:41.287Z,17.50
2022-10-19T18:44:11.405Z,17.47
2022-10-19T18:46:38.968Z,17.43
2022-10-19T18:49:08.346Z,17.39
2022-10-19T18:51:36.046Z,17.37
2022-10-19T18:54:03.621Z,17.30
2022-10-19T18:56:30.793Z,17.25
2022-10-19T18:58:57.887Z,17.18
2022-10-19T19:01:27.232Z,17.14
2022-10-19T19:04:04.294Z,17.09
2022-10-19T19:06:33.053Z,17.04
2022-10-19T19:09:02.082Z,17.00
2022-10-19T19:11:35.848Z,17.07
2022-10-19T19:14:13.739Z,17.05
2022-10-19T19:16:43.246Z,16.89
2022-10-19T19:19:13.240Z,16.71
2022-10-19T19:21:43.836Z,16.59
2022-10-19T19:24:17.104Z,16.70
2022-10-19T19:26:48.285Z,16.69
2022-10-19T19:29:16.694Z,16.55
2022-10-19T19:31:44.234Z,16.55
2022-10-19T19:34:11.710Z,16.56
2022-10-19T19:39:15.597Z,16.40
2022-10-19T19:41:43.318Z,16.44
2022-10-19T19:44:10.731Z,16.36
2022-10-19T19:46:38.022Z,16.30
2022-10-19T19:49:05.406Z,16.27
2022-10-19T19:51:33.577Z,16.26
2022-10-19T19:54:00.852Z,16.19
2022-10-19T19:56:28.992Z,16.16
2022-10-19T19:58:57.791Z,16.12
2022-10-19T20:01:26.069Z,16.12
2022-10-19T20:03:53.391Z,16.08
2022-10-19T20:06:24.977Z,16.06
2022-10-19T20:08:54.886Z,16.02
2022-10-19T20:11:23.625Z,15.95
2022-10-19T20:13:51.023Z,15.89
2022-10-19T20:16:26.546Z,15.85
2022-10-19T20:19:00.655Z,15.82
2022-10-19T20:21:27.817Z,15.79
2022-10-19T20:23:55.083Z,15.79
2022-10-19T20:26:23.932Z,15.76
2022-10-19T20:28:51.071Z,15.74
2022-10-19T20:31:18.997Z,15.70
2022-10-19T20:33:49.720Z,15.69
2022-10-19T20:36:22.755Z,15.57
2022-10-19T20:38:56.713Z,15.46
2022-10-19T20:41:25.670Z,15.41
2022-10-19T20:43:53.765Z,15.32
2022-10-19T20:46:23.499Z,15.19
2022-10-19T20:48:51.351Z,15.05
2022-10-19T20:51:24.895Z,14.98
2022-10-19T20:53:55.993Z,14.97
2022-10-19T20:56:26.138Z,15.03
2022-10-19T20:58:58.429Z,15.15
2022-10-19T21:01:26.652Z,15.23
2022-10-19T21:03:56.257Z,15.22
2022-10-19T21:06:25.147Z,15.13
2022-10-19T21:08:52.767Z,15.07
2022-10-19T21:11:25.962Z,15.01
2022-10-19T21:13:55.260Z,14.96
2022-10-19T21:16:23.894Z,14.90
2022-10-19T21:18:51.004Z,14.89
2022-10-19T21:21:19.326Z,14.83
2022-10-19T21:23:49.121Z,14.83
2022-10-19T21:26:17.305Z,14.86
2022-10-19T21:28:48.843Z,14.86
2022-10-19T21:31:17.541Z,14.80
2022-10-19T21:33:45.517Z,14.76
2022-10-19T21:36:14.299Z,14.60
2022-10-19T21:38:42.702Z,14.52
2022-10-19T21:41:20.858Z,14.47
2022-10-19T21:43:51.012Z,14.41
2022-10-19T21:46:19.990Z,14.34
2022-10-19T21:48:47.629Z,14.25
2022-10-19T21:51:14.693Z,14.22
2022-10-19T21:53:41.759Z,14.21
2022-10-19T21:56:08.909Z,14.18
2022-10-19T21:58:35.982Z,14.22
2022-10-19T22:01:07.458Z,14.22
2022-10-19T22:03:34.622Z,14.16
2022-10-19T22:06:01.811Z,14.16
2022-10-19T22:08:28.973Z,14.13
2022-10-19T22:10:56.441Z,14.13
2022-10-19T22:13:23.541Z,14.13
2022-10-19T22:15:50.691Z,14.14
2022-10-19T22:18:17.747Z,14.11
2022-10-19T22:20:44.830Z,14.07
2022-10-19T22:23:11.922Z,14.03
2022-10-19T22:25:39.072Z,14.02
2022-10-19T22:28:06.158Z,14.06
2022-10-19T22:30:33.320Z,14.07
2022-10-19T22:33:00.438Z,14.06
2022-10-19T22:35:27.515Z,13.95
2022-10-19T22:37:54.655Z,13.84
2022-10-19T22:40:21.996Z,13.82
2022-10-19T22:42:49.053Z,13.85
2022-10-19T22:45:16.195Z,13.83
2022-10-19T22:47:44.272Z,13.79
2022-10-19T22:50:11.838Z,13.80
2022-10-19T22:52:39.147Z,13.76
2022-10-19T22:55:06.592Z,13.77
2022-10-19T22:57:33.658Z,13.75
2022-10-19T23:00:00.720Z,13.74
2022-10-19T23:02:29.182Z,13.67
2022-10-19T23:04:56.260Z,13.67
2022-10-19T23:07:23.334Z,13.64
2022-10-19T23:09:50.437Z,13.63
2022-10-19T23:12:17.548Z,13.64
2022-10-19T23:14:44.602Z,13.61
2022-10-19T23:17:11.781Z,13.58
2022-10-19T23:19:38.865Z,13.57
2022-10-19T23:22:05.931Z,13.51
2022-10-19T23:24:33.003Z,13.42
2022-10-19T23:27:00.207Z,13.36
2022-10-19T23:29:27.308Z,13.30
2022-10-19T23:31:54.390Z,13.25
2022-10-19T23:34:21.479Z,13.24
2022-10-19T23:36:48.587Z,13.21
2022-10-19T23:39:15.763Z,13.22
2022-10-19T23:41:42.852Z,13.23
2022-10-19T23:44:10.548Z,13.22
2022-10-19T23:46:37.675Z,13.23
2022-10-19T23:49:04.873Z,13.22
2022-10-19T23:51:32.111Z,13.18
2022-10-19T23:53:59.406Z,13.20
2022-10-19T23:56:28.486Z,13.17
2022-10-19T23:58:56.568Z,13.06
